createdAt,value
2023-05-10T03:57:43.189Z,100605.31
2023-05-10T04:00:46.580Z,100609.56
2023-05-10T04:03:49.963Z,100606.03
2023-05-10T04:06:52.753Z,100606.03
2023-05-10T04:09:55.898Z,100610.03
2023-05-10T04:12:59.025Z,100606.00
2023-05-10T04:16:02.433Z,100608.47
2023-05-10T04:19:05.113Z,100601.31
2023-05-10T04:22:08.104Z,100602.81
2023-05-10T04:25:10.821Z,100603.50
2023-05-10T04:28:13.709Z,100594.22
2023-05-10T04:31:16.335Z,100604.28
2023-05-10T04:34:19.869Z,100609.78
2023-05-10T04:37:24.029Z,100607.69
2023-05-10T04:40:27.161Z,100604.56
2023-05-10T04:43:29.862Z,100608.28
2023-05-10T04:46:33.037Z,100610.22
2023-05-10T04:49:35.752Z,100612.94
2023-05-10T04:52:38.828Z,100606.47
2023-05-10T04:55:41.658Z,100609.66
2023-05-10T04:58:44.569Z,100606.72
2023-05-10T05:01:47.307Z,100614.22
2023-05-10T05:04:50.567Z,100612.22
2023-05-10T05:07:53.258Z,100614.25
2023-05-10T05:10:56.267Z,100611.88
2023-05-10T05:14:00.270Z,100614.69
2023-05-10T05:17:03.367Z,100608.25
2023-05-10T05:20:06.811Z,100614.41
2023-05-10T05:23:09.816Z,100611.62
2023-05-10T05:26:12.789Z,100623.25
2023-05-10T05:29:15.774Z,100614.41
2023-05-10T05:32:18.457Z,100616.91
2023-05-10T05:35:21.762Z,100614.72
2023-05-10T05:38:24.730Z,100625.78
2023-05-10T05:41:27.717Z,100624.41
2023-05-10T05:44:30.409Z,100635.50
2023-05-10T05:47:33.546Z,100628.38
2023-05-10T05:50:36.515Z,100631.38
2023-05-10T05:53:39.608Z,100633.03
2023-05-10T05:56:42.356Z,100627.28
2023-05-10T05:59:45.434Z,100632.88
2023-05-10T06:02:48.277Z,100637.63
2023-05-10T06:05:51.233Z,100641.34
2023-05-10T06:08:53.805Z,100638.53
2023-05-10T06:11:56.795Z,100635.22
2023-05-10T06:14:59.494Z,100645.25
2023-05-10T06:18:02.489Z,100636.91
2023-05-10T06:21:05.286Z,100642.50
2023-05-10T06:24:08.411Z,100641.75
2023-05-10T06:27:11.182Z,100644.09
2023-05-10T06:30:15.775Z,100639.56
2023-05-10T06:33:18.574Z,100644.47
2023-05-10T06:36:21.958Z,100659.00
2023-05-10T06:39:24.685Z,100662.84
2023-05-10T06:42:28.323Z,100649.41
2023-05-10T06:45:31.309Z,100657.16
2023-05-10T06:48:35.129Z,100652.09
2023-05-10T06:51:37.873Z,100646.13
2023-05-10T06:55:01.324Z,100652.22
2023-05-10T06:58:04.333Z,100649.41
2023-05-10T07:01:07.502Z,100646.03
2023-05-10T07:04:10.426Z,100653.41
2023-05-10T07:07:13.312Z,100652.81
2023-05-10T07:10:16.034Z,100648.34
2023-05-10T07:13:27.195Z,100642.12
2023-05-10T07:16:29.892Z,100644.84
2023-05-10T07:19:33.727Z,100643.41
2023-05-10T07:22:36.490Z,100648.22
2023-05-10T07:25:39.437Z,100647.31
2023-05-10T07:28:42.403Z,100635.12
2023-05-10T07:31:45.379Z,100634.81
2023-05-10T07:34:48.139Z,100641.03
2023-05-10T07:37:50.991Z,100633.72
2023-05-10T07:40:53.569Z,100621.38
2023-05-10T07:43:56.614Z,100630.97
2023-05-10T07:46:59.218Z,100624.53
2023-05-10T07:50:02.609Z,100616.91
2023-05-10T07:53:05.696Z,100618.28
2023-05-10T07:56:28.330Z,100623.06
2023-05-10T07:59:31.032Z,100629.87
2023-05-10T08:02:36.376Z,100629.28
2023-05-10T08:05:41.931Z,100620.50
2023-05-10T08:08:46.597Z,100624.84
2023-05-10T08:11:52.350Z,100625.34
2023-05-10T08:14:54.928Z,100628.88
2023-05-10T08:17:58.046Z,100633.66
2023-05-10T08:21:00.715Z,100626.53
2023-05-10T08:24:03.844Z,100617.16
2023-05-10T08:27:06.997Z,100628.56
2023-05-10T08:30:10.464Z,100626.00
2023-05-10T08:33:13.083Z,100620.03
2023-05-10T08:36:20.728Z,100625.28
2023-05-10T08:39:30.361Z,100628.25
2023-05-10T08:42:38.771Z,100622.84
2023-05-10T08:45:44.922Z,100627.44
2023-05-10T08:48:49.103Z,100615.50
2023-05-10T08:51:56.932Z,100625.78
2023-05-10T08:55:02.064Z,100622.56
2023-05-10T08:58:05.209Z,100615.12
2023-05-10T09:01:08.849Z,100621.44
2023-05-10T09:04:13.339Z,100620.37
2023-05-10T09:07:17.011Z,100618.19
2023-05-10T09:10:21.213Z,100620.81
2023-05-10T09:13:25.766Z,100618.84
2023-05-10T09:16:28.434Z,100613.09
2023-05-10T09:19:31.397Z,100619.44
2023-05-10T09:22:35.582Z,100614.53
2023-05-10T09:25:39.803Z,100616.09
2023-05-10T09:29:09.747Z,100619.31
2023-05-10T09:32:13.790Z,100608.16
2023-05-10T09:35:29.622Z,100605.44
2023-05-10T09:38:54.551Z,100606.81
2023-05-10T09:41:57.735Z,100600.81
2023-05-10T09:45:07.977Z,100604.88
2023-05-10T09:48:10.798Z,100594.22
2023-05-10T09:51:23.727Z,100599.59
2023-05-10T09:54:26.893Z,100598.88
2023-05-10T09:57:30.134Z,100591.25
2023-05-10T10:00:37.673Z,100600.06
2023-05-10T10:03:44.391Z,100592.44
2023-05-10T10:06:47.069Z,100586.66
2023-05-10T10:09:51.631Z,100596.91
2023-05-10T10:12:55.159Z,100579.91
2023-05-10T10:15:58.354Z,100572.13
2023-05-10T10:19:01.920Z,100570.03
2023-05-10T10:22:07.571Z,100572.28
2023-05-10T10:25:12.060Z,100576.56
2023-05-10T10:28:23.081Z,100564.28
2023-05-10T10:31:34.865Z,100564.22
2023-05-10T10:34:41.608Z,100559.13
2023-05-10T10:37:46.442Z,100556.47
2023-05-10T10:40:51.880Z,100551.34
2023-05-10T10:44:34.911Z,100563.94
2023-05-10T10:47:38.455Z,100557.31
2023-05-10T10:50:47.841Z,100555.50
2023-05-10T10:53:50.848Z,100541.19
2023-05-10T10:57:16.529Z,100546.81
2023-05-10T11:00:22.772Z,100536.59
2023-05-10T11:03:26.496Z,100529.78
2023-05-10T11:06:37.161Z,100521.97
2023-05-10T11:09:41.488Z,100510.19
2023-05-10T11:13:04.159Z,100517.69
2023-05-10T11:16:13.068Z,100506.56
2023-05-10T11:19:17.543Z,100521.34
2023-05-10T11:22:20.187Z,100510.69
2023-05-10T11:25:29.896Z,100512.84
2023-05-10T11:28:33.278Z,100502.19
2023-05-10T11:31:36.611Z,100486.81
2023-05-10T11:34:39.789Z,100489.34
2023-05-10T11:37:44.761Z,100494.50
2023-05-10T11:40:47.469Z,100485.59
2023-05-10T11:43:52.699Z,100471.91
2023-05-10T11:46:55.312Z,100475.78
2023-05-10T11:49:59.002Z,100476.22
2023-05-10T11:53:02.322Z,100485.06
2023-05-10T11:56:10.587Z,100489.34
2023-05-10T11:59:15.816Z,100481.06
2023-05-10T12:02:18.813Z,100485.91
2023-05-10T12:05:22.564Z,100491.53
2023-05-10T12:08:27.691Z,100498.69
2023-05-10T12:11:30.925Z,100495.84
2023-05-10T12:14:36.150Z,100488.59
2023-05-10T12:17:43.206Z,100486.25
2023-05-10T12:20:46.262Z,100488.13
2023-05-10T12:23:54.426Z,100479.97
2023-05-10T12:26:57.101Z,100482.62
2023-05-10T12:30:03.790Z,100483.47
2023-05-10T12:33:11.147Z,100477.84
2023-05-10T12:36:16.175Z,100470.34
2023-05-10T12:39:18.996Z,100477.91
2023-05-10T12:42:22.052Z,100482.53
2023-05-10T12:45:24.676Z,100464.09
2023-05-10T12:48:29.716Z,100475.00
2023-05-10T12:51:32.472Z,100462.59
2023-05-10T12:54:35.369Z,100459.12
2023-05-10T12:57:37.916Z,100462.00
2023-05-10T13:00:40.909Z,100456.34
2023-05-10T13:03:44.302Z,100454.09
2023-05-10T13:06:47.341Z,100439.19
2023-05-10T13:09:49.979Z,100447.53
2023-05-10T13:12:53.089Z,100435.75
2023-05-10T13:15:55.711Z,100428.66
2023-05-10T13:18:59.571Z,100444.94
2023-05-10T13:22:02.420Z,100440.94
2023-05-10T13:25:05.812Z,100431.22
2023-05-10T13:28:08.513Z,100428.47
2023-05-10T13:31:13.460Z,100416.03
2023-05-10T13:34:16.126Z,100413.28
2023-05-10T13:37:19.141Z,100410.41
2023-05-10T13:40:21.744Z,100408.28
2023-05-10T13:43:25.418Z,100396.91
2023-05-10T13:46:28.441Z,100391.81
2023-05-10T13:49:31.493Z,100372.47
2023-05-10T13:52:34.203Z,100391.41
2023-05-10T13:55:37.256Z,100399.66
2023-05-10T13:58:39.789Z,100400.97
2023-05-10T14:01:44.183Z,100399.94
2023-05-10T14:04:47.822Z,100379.63
2023-05-10T14:07:51.787Z,100373.06
2023-05-10T14:10:57.260Z,100372.25
2023-05-10T14:13:59.888Z,100365.34
2023-05-10T14:17:02.926Z,100365.00
2023-05-10T14:20:06.238Z,100370.16
2023-05-10T14:23:11.722Z,100368.09
2023-05-10T14:26:14.668Z,100362.41
2023-05-10T14:29:17.511Z,100367.41
2023-05-10T14:32:23.021Z,100355.66
2023-05-10T14:35:26.090Z,100369.97
2023-05-10T14:38:28.937Z,100361.16
2023-05-10T14:41:31.993Z,100356.38
2023-05-10T14:44:34.620Z,100363.22
2023-05-10T14:47:37.699Z,100361.59
2023-05-10T14:50:40.706Z,100366.63
2023-05-10T14:53:46.378Z,100362.59
2023-05-10T14:56:50.996Z,100367.78
2023-05-10T14:59:53.909Z,100350.06
2023-05-10T15:02:57.156Z,100372.31
2023-05-10T15:06:00.599Z,100366.22
2023-05-10T15:09:07.174Z,100373.06
2023-05-10T15:12:10.171Z,100371.28
2023-05-10T15:15:12.813Z,100378.34
2023-05-10T15:18:15.883Z,100377.06
2023-05-10T15:21:21.087Z,100371.81
2023-05-10T15:24:24.047Z,100367.75
2023-05-10T15:27:27.264Z,100365.69
2023-05-10T15:30:30.211Z,100367.53
2023-05-10T15:33:32.835Z,100368.84
2023-05-10T15:36:35.761Z,100370.22
2023-05-10T15:39:38.303Z,100369.09
2023-05-10T15:42:41.223Z,100369.91
2023-05-10T15:45:43.892Z,100369.75
2023-05-10T15:48:46.726Z,100365.53
2023-05-10T15:51:49.774Z,100362.53
2023-05-10T15:54:56.032Z,100360.25
